Time,TemperatureF,DewpointF,PressureIn,WindDirection,WindDirectionDegrees,WindSpeedMPH,WindSpeedGustMPH,Humidity,HourlyPrecipIn,Conditions,Clouds,dailyrainin,SoftwareType,DateUTC
2013-03-23 00:00:00,33.8,23.6,29.93,WNW,293,2.5,4.3,66,0.00,,,0.00,WUHU216HW,2013-03-23 04:00:00,
2013-03-23 00:10:00,33.8,23.6,29.93,West,270,1.3,2.7,66,0.56,,,0.56,WUHU216HW,2013-03-23 04:10:00,
2013-03-23 00:14:00,33.8,23.6,29.93,NW,315,1.1,2.7,66,0.56,,,0.56,WUHU216HW,2013-03-23 04:14:00,
2013-03-23 00:20:00,33.8,23.6,29.93,West,270,1.8,1.8,66,0.56,,,0.56,WUHU216HW,2013-03-23 04:20:00,
2013-03-23 00:30:00,33.8,23.6,29.93,WSW,248,0.7,2.2,66,0.56,,,0.56,WUHU216HW,2013-03-23 04:30:00,
2013-03-23 00:40:00,33.8,23.6,29.93,NW,315,1.1,2.2,66,0.56,,,0.56,WUHU216HW,2013-03-23 04:40:00,
2013-03-23 00:50:00,33.8,23.6,29.93,NNW,338,0.7,2.5,66,0.56,,,0.56,WUHU216HW,2013-03-23 04:50:00,
2013-03-23 01:00:00,33.8,23.6,29.93,WNW,293,1.3,2.7,66,0.56,,,0.56,WUHU216HW,2013-03-23 05:00:00,
2013-03-23 01:10:00,33.8,23.2,29.93,WSW,248,0.4,2.5,65,0.56,,,1.12,WUHU216HW,2013-03-23 05:10:00,
2013-03-23 01:20:00,33.8,23.2,29.93,WNW,293,0.2,2.2,65,0.56,,,1.12,WUHU216HW,2013-03-23 05:20:00,
2013-03-23 01:30:00,33.7,23.0,29.93,WSW,248,0.0,0.7,65,0.00,,,1.12,WUHU216HW,2013-03-23 05:30:00,
2013-03-23 02:06:00,33.7,22.3,29.93,NNW,338,0.7,1.6,63,0.56,,,1.68,WUHU216HW,2013-03-23 06:06:00,
2013-03-23 02:16:00,33.8,22.1,29.93,West,270,0.2,1.8,62,0.56,,,1.68,WUHU216HW,2013-03-23 06:16:00,
2013-03-23 02:26:00,33.8,22.5,29.93,NNW,338,1.3,3.4,63,0.56,,,1.68,WUHU216HW,2013-03-23 06:26:00,
2013-03-23 02:36:00,33.8,22.1,29.93,West,270,1.6,3.6,62,0.56,,,1.68,WUHU216HW,2013-03-23 06:36:00,
2013-03-23 02:46:00,33.7,22.7,29.93,WNW,293,1.3,3.1,64,0.00,,,1.68,WUHU216HW,2013-03-23 06:46:00,
2013-03-23 02:56:00,33.5,22.5,29.92,NW,315,1.8,3.1,64,0.56,,,1.68,WUHU216HW,2013-03-23 06:56:00,
2013-03-23 03:06:00,33.5,22.5,29.92,NW,315,3.8,3.8,64,0.56,,,2.24,WUHU216HW,2013-03-23 07:06:00,
2013-03-23 03:16:00,33.1,22.2,29.92,WNW,293,0.9,1.8,64,0.56,,,2.24,WUHU216HW,2013-03-23 07:16:00,
2013-03-23 03:27:00,32.9,22.1,29.91,NW,315,0.7,2.5,64,0.56,,,2.24,WUHU216HW,2013-03-23 07:27:00,
2013-03-23 03:37:00,33.1,21.9,29.91,WNW,293,1.1,3.1,63,0.56,,,2.24,WUHU216HW,2013-03-23 07:37:00,
2013-03-23 03:47:00,32.8,21.2,29.91,West,270,1.1,2.5,62,0.00,,,2.24,WUHU216HW,2013-03-23 07:47:00,
2013-03-23 03:57:00,32.8,21.5,29.90,SW,225,0.7,4.0,63,0.00,,,2.24,WUHU216HW,2013-03-23 07:57:00,
2013-03-23 04:07:00,32.2,21.4,29.90,West,270,0.4,1.8,64,0.00,,,2.80,WUHU216HW,2013-03-23 08:07:00,
2013-03-23 04:17:00,32.0,21.6,29.90,NW,315,1.3,2.5,65,0.00,,,2.80,WUHU216HW,2013-03-23 08:17:00,
2013-03-23 04:27:00,32.4,21.3,29.90,West,270,1.8,3.4,63,0.00,,,2.80,WUHU216HW,2013-03-23 08:27:00,
2013-03-23 04:37:00,32.4,20.9,29.90,West,270,1.3,2.5,62,0.00,,,2.80,WUHU216HW,2013-03-23 08:37:00,
2013-03-23 04:47:00,32.0,20.9,29.90,WSW,248,0.0,1.1,63,0.00,,,2.80,WUHU216HW,2013-03-23 08:47:00,
2013-03-23 04:57:00,31.9,21.1,29.90,West,270,0.2,1.8,64,0.00,,,2.80,WUHU216HW,2013-03-23 08:57:00,
2013-03-23 05:07:00,31.9,21.4,29.90,West,270,0.9,1.8,65,0.00,,,3.35,WUHU216HW,2013-03-23 09:07:00,
2013-03-23 05:17:00,31.7,21.2,29.91,West,270,1.3,1.3,65,0.00,,,3.35,WUHU216HW,2013-03-23 09:17:00,
2013-03-23 05:27:00,31.9,21.4,29.91,NW,315,0.9,2.5,65,0.00,,,3.35,WUHU216HW,2013-03-23 09:27:00,
2013-03-23 05:37:00,32.0,20.9,29.91,West,270,2.5,3.4,63,0.00,,,3.35,WUHU216HW,2013-03-23 09:37:00,
2013-03-23 05:47:00,32.0,20.9,29.91,NW,315,2.9,2.9,63,0.00,,,3.35,WUHU216HW,2013-03-23 09:47:00,
2013-03-23 05:57:00,32.2,21.1,29.92,NNW,338,0.4,2.9,63,0.00,,,3.35,WUHU216HW,2013-03-23 09:57:00,
2013-03-23 06:07:00,32.2,21.1,29.93,WSW,248,1.6,2.5,63,0.00,,,3.91,WUHU216HW,2013-03-23 10:07:00,
2013-03-23 06:17:00,32.2,21.1,29.92,WSW,248,1.1,1.8,63,0.00,,,3.91,WUHU216HW,2013-03-23 10:17:00,
2013-03-23 06:27:00,32.2,21.1,29.93,WNW,293,1.1,2.9,63,0.00,,,3.91,WUHU216HW,2013-03-23 10:27:00,
2013-03-23 06:37:00,32.0,20.9,29.93,NW,315,2.0,2.0,63,0.00,,,3.91,WUHU216HW,2013-03-23 10:37:00,
2013-03-23 06:47:00,32.2,21.1,29.93,West,270,0.9,2.0,63,0.00,,,3.91,WUHU216HW,2013-03-23 10:47:00,
2013-03-23 06:57:00,32.0,20.9,29.92,West,270,1.6,2.0,63,0.56,,,3.91,WUHU216HW,2013-03-23 10:57:00,
2013-03-23 07:07:00,31.7,20.9,29.93,West,270,1.8,1.8,64,0.56,,,4.47,WUHU216HW,2013-03-23 11:07:00,
2013-03-23 07:17:00,31.5,20.7,29.93,West,270,0.4,1.8,64,0.56,,,4.47,WUHU216HW,2013-03-23 11:17:00,
2013-03-23 07:27:00,31.3,20.9,29.93,NNW,338,1.6,1.6,65,0.00,,,4.47,WUHU216HW,2013-03-23 11:27:00,
2013-03-23 07:37:00,31.5,21.1,29.93,WSW,248,1.8,1.8,65,0.00,,,4.47,WUHU216HW,2013-03-23 11:37:00,
2013-03-23 07:47:00,31.9,21.1,29.93,WNW,293,0.4,1.6,64,0.00,,,4.47,WUHU216HW,2013-03-23 11:47:00,
2013-03-23 07:57:00,32.0,21.6,29.93,West,270,0.2,1.1,65,0.00,,,4.47,WUHU216HW,2013-03-23 11:57:00,
2013-03-23 08:07:00,32.9,21.7,29.93,NW,315,1.1,2.5,63,0.00,,,5.03,WUHU216HW,2013-03-23 12:07:00,
2013-03-23 08:17:00,33.3,21.7,29.93,SSW,203,1.8,3.1,62,0.00,,,5.03,WUHU216HW,2013-03-23 12:17:00,
2013-03-23 08:27:00,33.7,22.0,29.94,West,270,3.1,3.1,62,0.00,,,5.03,WUHU216HW,2013-03-23 12:27:00,
2013-03-23 08:37:00,33.8,22.1,29.94,SW,225,0.7,2.5,62,0.00,,,5.03,WUHU216HW,2013-03-23 12:37:00,
2013-03-23 08:47:00,34.7,23.0,29.93,SW,225,0.9,2.7,62,0.00,,,5.03,WUHU216HW,2013-03-23 12:47:00,
2013-03-23 08:57:00,35.3,22.9,29.93,West,270,1.8,4.7,60,0.56,,,5.03,WUHU216HW,2013-03-23 12:57:00,
2013-03-23 09:07:00,35.8,23.4,29.93,WSW,248,1.3,2.9,60,0.56,,,5.59,WUHU216HW,2013-03-23 13:07:00,
2013-03-23 09:17:00,36.4,23.1,29.93,NW,315,1.1,3.4,58,0.00,,,5.59,WUHU216HW,2013-03-23 13:17:00,
2013-03-23 09:27:00,36.5,22.8,29.93,NW,315,2.5,4.5,57,0.56,,,5.59,WUHU216HW,2013-03-23 13:27:00,
2013-03-23 09:37:00,37.4,23.6,29.93,NNE,23,1.3,3.1,57,0.56,,,5.59,WUHU216HW,2013-03-23 13:37:00,
2013-03-23 09:47:00,37.4,23.1,29.93,WNW,293,3.1,5.1,56,0.00,,,5.59,WUHU216HW,2013-03-23 13:47:00,
2013-03-23 09:57:00,37.8,23.4,29.92,North,0,2.0,5.8,56,0.56,,,5.59,WUHU216HW,2013-03-23 13:57:00,
2013-03-23 10:07:00,38.3,24.0,29.92,WNW,293,1.8,3.6,56,0.56,,,6.15,WUHU216HW,2013-03-23 14:07:00,
2013-03-23 10:43:00,39.6,23.3,29.92,NNW,338,1.6,5.1,52,0.00,,,6.15,WUHU216HW,2013-03-23 14:43:00,
2013-03-23 10:53:00,40.0,24.1,29.92,West,270,4.7,7.2,53,0.00,,,6.15,WUHU216HW,2013-03-23 14:53:00,
2013-03-23 11:03:00,40.7,23.4,29.92,WSW,248,2.2,5.1,50,0.00,,,6.71,WUHU216HW,2013-03-23 15:03:00,
2013-03-23 11:13:00,40.7,23.0,29.92,WNW,293,6.9,7.2,49,0.00,,,6.71,WUHU216HW,2013-03-23 15:13:00,
2013-03-23 11:23:00,40.9,23.0,29.92,WSW,248,3.8,4.9,49,0.00,,,6.71,WUHU216HW,2013-03-23 15:23:00,
2013-03-23 11:33:00,40.7,23.0,29.92,NW,315,3.4,4.0,49,0.00,,,6.71,WUHU216HW,2013-03-23 15:33:00,
2013-03-23 11:43:00,41.0,23.8,29.92,NNW,338,1.1,5.4,50,0.00,,,6.71,WUHU216HW,2013-03-23 15:43:00,
2013-03-23 11:53:00,40.7,23.0,29.93,NW,315,4.9,7.6,49,0.00,,,6.71,WUHU216HW,2013-03-23 15:53:00,
2013-03-23 12:03:00,41.4,23.6,29.93,NNW,338,3.4,4.0,49,0.00,,,7.27,WUHU216HW,2013-03-23 16:03:00,
2013-03-23 12:13:00,40.7,23.0,29.93,NW,315,2.2,4.7,49,0.00,,,7.27,WUHU216HW,2013-03-23 16:13:00,
2013-03-23 12:23:00,40.5,22.2,29.93,North,0,3.8,9.6,48,0.00,,,7.27,WUHU216HW,2013-03-23 16:23:00,
2013-03-23 12:33:00,40.3,22.6,29.93,West,270,4.3,6.9,49,0.00,,,7.27,WUHU216HW,2013-03-23 16:33:00,
2013-03-23 12:43:00,40.0,22.2,29.92,North,0,2.2,5.6,49,0.00,,,7.27,WUHU216HW,2013-03-23 16:43:00,
2013-03-23 12:53:00,40.1,22.4,29.92,NNW,338,2.0,6.7,49,0.00,,,7.27,WUHU216HW,2013-03-23 16:53:00,
2013-03-23 13:03:00,40.5,22.2,29.92,NNW,338,2.2,7.8,48,0.00,,,7.83,WUHU216HW,2013-03-23 17:03:00,
2013-03-23 13:13:00,41.4,23.6,29.92,North,0,4.7,7.2,49,0.00,,,7.83,WUHU216HW,2013-03-23 17:13:00,
2013-03-23 13:23:00,42.7,23.2,29.91,NNW,338,3.6,8.1,46,0.00,,,7.83,WUHU216HW,2013-03-23 17:23:00,
2013-03-23 13:33:00,42.3,22.9,29.91,SW,225,6.3,7.6,46,0.00,,,7.83,WUHU216HW,2013-03-23 17:33:00,
2013-03-23 13:43:00,42.8,22.3,29.91,WNW,293,4.7,6.7,44,0.00,,,7.83,WUHU216HW,2013-03-23 17:43:00,
2013-03-23 13:53:00,43.2,22.7,29.90,NNW,338,4.3,6.3,44,0.00,,,7.83,WUHU216HW,2013-03-23 17:53:00,
2013-03-23 14:03:00,42.7,22.7,29.90,NNE,23,6.3,8.7,45,0.00,,,8.39,WUHU216HW,2013-03-23 18:03:00,
2013-03-23 14:13:00,42.7,22.1,29.90,NNW,338,3.1,7.8,44,0.00,,,8.39,WUHU216HW,2013-03-23 18:13:00,
2013-03-23 14:23:00,43.6,23.0,29.89,North,0,4.0,8.5,44,0.00,,,8.39,WUHU216HW,2013-03-23 18:23:00,
2013-03-23 14:33:00,44.5,23.2,29.89,SW,225,4.7,9.8,43,0.00,,,8.39,WUHU216HW,2013-03-23 18:33:00,
2013-03-23 14:43:00,42.5,22.5,29.89,NW,315,5.8,7.6,45,0.00,,,8.39,WUHU216HW,2013-03-23 18:43:00,
2013-03-23 14:53:00,43.2,23.2,29.89,WSW,248,3.6,10.5,45,0.00,,,8.39,WUHU216HW,2013-03-23 18:53:00,
2013-03-23 15:03:00,44.1,21.9,29.88,WNW,293,7.6,7.6,41,0.00,,,8.94,WUHU216HW,2013-03-23 19:03:00,
2013-03-23 15:13:00,43.6,22.4,29.88,NNW,338,8.1,8.1,43,0.00,,,8.94,WUHU216HW,2013-03-23 19:13:00,
2013-03-23 15:23:00,43.4,22.2,29.88,NNW,338,6.9,10.7,43,0.00,,,8.94,WUHU216HW,2013-03-23 19:23:00,
2013-03-23 15:33:00,44.3,23.0,29.88,NNW,338,4.7,5.8,43,0.00,,,8.94,WUHU216HW,2013-03-23 19:33:00,
2013-03-23 15:43:00,44.5,22.7,29.88,NNW,338,7.6,11.6,42,0.00,,,8.94,WUHU216HW,2013-03-23 19:43:00,
2013-03-23 15:53:00,44.3,22.5,29.88,North,0,6.3,6.3,42,0.00,,,8.94,WUHU216HW,2013-03-23 19:53:00,
2013-03-23 16:03:00,44.3,23.6,29.88,WSW,248,1.1,10.3,44,0.00,,,9.50,WUHU216HW,2013-03-23 20:03:00,
2013-03-23 16:13:00,45.2,22.8,29.88,NNW,338,2.2,8.1,41,0.00,,,9.50,WUHU216HW,2013-03-23 20:13:00,
2013-03-23 16:23:00,44.1,21.3,29.89,NW,315,4.0,6.5,40,0.00,,,9.50,WUHU216HW,2013-03-23 20:23:00,
2013-03-23 16:33:00,43.6,21.9,29.89,West,270,2.0,5.4,42,0.00,,,9.50,WUHU216HW,2013-03-23 20:33:00,
2013-03-23 16:43:00,43.7,21.0,29.89,West,270,4.3,10.3,40,0.56,,,9.50,WUHU216HW,2013-03-23 20:43:00,
2013-03-23 16:53:00,43.4,20.6,29.88,North,0,2.5,5.6,40,0.56,,,9.50,WUHU216HW,2013-03-23 20:53:00,
2013-03-23 17:03:00,42.1,20.1,29.89,NNW,338,2.5,6.0,41,0.56,,,10.06,WUHU216HW,2013-03-23 21:03:00,
2013-03-23 17:13:00,42.1,20.6,29.89,WNW,293,4.0,6.0,42,0.56,,,10.06,WUHU216HW,2013-03-23 21:13:00,
2013-03-23 17:23:00,42.8,21.2,29.88,NNW,338,2.2,7.6,42,0.56,,,10.06,WUHU216HW,2013-03-23 21:23:00,
2013-03-23 17:33:00,43.4,20.6,29.88,NNW,338,2.5,5.1,40,0.56,,,10.06,WUHU216HW,2013-03-23 21:33:00,
2013-03-23 17:43:00,43.6,20.2,29.89,NNW,338,4.7,8.5,39,0.56,,,10.06,WUHU216HW,2013-03-23 21:43:00,
2013-03-23 17:54:00,42.5,20.3,29.89,NNW,338,0.9,6.9,41,0.56,,,10.06,WUHU216HW,2013-03-23 21:54:00,
2013-03-23 18:04:00,42.3,20.3,29.90,NNW,338,1.1,5.6,41,0.56,,,10.62,WUHU216HW,2013-03-23 22:04:00,
2013-03-23 18:14:00,41.9,19.9,29.90,West,270,5.4,5.4,41,0.56,,,10.62,WUHU216HW,2013-03-23 22:14:00,
2013-03-23 18:24:00,42.1,19.5,29.91,West,270,3.8,5.1,40,0.56,,,10.62,WUHU216HW,2013-03-23 22:24:00,
2013-03-23 18:34:00,42.1,20.1,29.91,West,270,5.4,5.4,41,0.56,,,10.62,WUHU216HW,2013-03-23 22:34:00,
2013-03-23 18:44:00,41.6,19.5,29.91,WNW,293,3.8,6.7,41,0.56,,,10.62,WUHU216HW,2013-03-23 22:44:00,
2013-03-23 18:54:00,41.2,19.7,29.91,West,270,4.7,6.3,42,0.56,,,10.62,WUHU216HW,2013-03-23 22:54:00,
2013-03-23 19:04:00,40.9,19.5,29.91,NW,315,1.3,3.8,42,0.56,,,11.18,WUHU216HW,2013-03-23 23:04:00,
2013-03-23 19:14:00,40.5,19.6,29.91,North,0,2.2,5.4,43,0.56,,,11.18,WUHU216HW,2013-03-23 23:14:00,
2013-03-23 19:24:00,40.1,19.3,29.92,NNE,23,1.3,5.4,43,0.56,,,11.18,WUHU216HW,2013-03-23 23:24:00,
2013-03-23 19:34:00,40.0,19.6,29.93,NW,315,1.6,4.9,44,0.56,,,11.18,WUHU216HW,2013-03-23 23:34:00,
2013-03-23 19:44:00,39.6,19.4,29.93,WSW,248,3.4,3.6,44,0.56,,,11.18,WUHU216HW,2013-03-23 23:44:00,
2013-03-23 19:54:00,39.6,19.4,29.93,NW,315,0.9,3.6,44,0.56,,,11.18,WUHU216HW,2013-03-23 23:54:00,
2013-03-23 20:04:00,39.2,19.5,29.94,WSW,248,1.8,2.5,45,0.56,,,11.74,WUHU216HW,2013-03-24 00:04:00,
2013-03-23 20:14:00,39.2,19.5,29.94,WSW,248,3.8,4.3,45,0.56,,,11.74,WUHU216HW,2013-03-24 00:14:00,
2013-03-23 20:24:00,39.1,19.4,29.94,NW,315,3.1,3.6,45,0.56,,,11.74,WUHU216HW,2013-03-24 00:24:00,
2013-03-23 20:34:00,38.9,19.2,29.94,North,0,1.8,4.0,45,0.56,,,11.74,WUHU216HW,2013-03-24 00:34:00,
2013-03-23 20:44:00,38.5,18.9,29.95,WNW,293,1.1,3.1,45,0.56,,,11.74,WUHU216HW,2013-03-24 00:44:00,
2013-03-23 20:54:00,38.5,19.5,29.95,NW,315,0.2,5.1,46,0.56,,,11.74,WUHU216HW,2013-03-24 00:54:00,
2013-03-23 21:04:00,38.3,19.8,29.95,NW,315,0.4,4.3,47,0.56,,,12.30,WUHU216HW,2013-03-24 01:04:00,
2013-03-23 21:14:00,38.0,20.0,29.96,WSW,248,2.0,3.4,48,0.56,,,12.30,WUHU216HW,2013-03-24 01:14:00,
2013-03-23 21:24:00,37.8,19.8,29.96,NW,315,2.5,2.5,48,0.56,,,12.30,WUHU216HW,2013-03-24 01:24:00,
2013-03-23 21:34:00,37.6,20.2,29.96,NW,315,0.9,3.4,49,0.56,,,12.30,WUHU216HW,2013-03-24 01:34:00,
2013-03-23 21:44:00,37.4,20.0,29.96,NNW,338,2.9,4.9,49,0.56,,,12.30,WUHU216HW,2013-03-24 01:44:00,
2013-03-23 21:54:00,37.3,19.8,29.96,SSW,203,0.9,4.9,49,0.56,,,12.30,WUHU216HW,2013-03-24 01:54:00,
2013-03-23 22:04:00,37.3,19.8,29.96,WSW,248,0.9,5.4,49,0.55,,,12.85,WUHU216HW,2013-03-24 02:04:00,
2013-03-23 22:14:00,36.9,19.5,29.96,SSE,158,0.4,1.3,49,0.55,,,12.85,WUHU216HW,2013-03-24 02:14:00,
2013-03-23 22:24:00,36.4,20.0,29.96,NNW,338,0.9,1.3,51,0.55,,,12.85,WUHU216HW,2013-03-24 02:24:00,
2013-03-23 22:34:00,36.5,20.2,29.97,West,270,3.4,6.3,51,0.55,,,12.85,WUHU216HW,2013-03-24 02:34:00,
2013-03-23 22:44:00,36.4,20.0,29.98,North,0,1.1,1.8,51,0.55,,,12.85,WUHU216HW,2013-03-24 02:44:00,
2013-03-23 22:54:00,36.4,20.0,29.97,NNW,338,2.5,4.0,51,0.55,,,12.85,WUHU216HW,2013-03-24 02:54:00,
2013-03-23 23:04:00,36.2,19.8,29.98,NW,315,0.7,3.6,51,0.56,,,13.41,WUHU216HW,2013-03-24 03:04:00,
2013-03-23 23:14:00,36.0,19.6,29.98,NNW,338,2.2,5.8,51,0.56,,,13.41,WUHU216HW,2013-03-24 03:14:00,
2013-03-23 23:24:00,35.8,19.9,29.98,NNW,338,0.4,3.8,52,0.56,,,13.41,WUHU216HW,2013-03-24 03:24:00,
2013-03-23 23:34:00,35.6,19.8,29.98,WNW,293,3.1,3.4,52,0.56,,,13.41,WUHU216HW,2013-03-24 03:34:00,
2013-03-23 23:44:00,35.6,19.8,29.98,WSW,248,0.9,3.4,52,0.56,,,13.41,WUHU216HW,2013-03-24 03:44:00,
2013-03-23 23:54:00,35.6,20.2,29.98,North,0,2.0,4.9,53,0.56,,,13.41,WUHU216HW,2013-03-24 03:54:00,